Startpagina
METAR-TAF:

METAR-TAF

Vliegvelden :

Teheran, Iran

Teheran Mehrabad International Airport

breedte: 35-41N, lengte: 051-21E, hoogte: 1204 m

Actueel weer

Dit bericht is 16 minuten geleden gemaakt, om 21:00 UTC
Wind 4 kt uit het westzuidwesten
Temperatuur 4°C
Vochtigheid 48%
Druk 1018 hPa
Zicht 10 km of meer
Weinig wolken op 4000 ft
Gebroken wolken op 10000 ft

METAR: OIII 162100Z 24004KT 9999 FEW040 BKN100 04/M06 Q1017 A3005 NOSIG

Tijdstip: 00:46 (21:16 UTC)

Verwachting

Dit bericht is 4 uur en het 16 minuten geleden gemaakt, om 17:00 UTC
Verwachting geldig van 16 om 18 UTC tot 17 om 24 UTC
Wind 8 kt uit het zuiden
Zicht: 8000 m
Weinig wolken op 4000 ft
Tijdelijke
van 16 om 18 UTC tot 17 om 04 UTC
Weinig wolken op 3500 ft, Cumulonimbus.
Verspreide wolken op 4000 ft
Gebroken wolken op 10000 ft

TAF: OIII 161700Z 1618/1724 18004MPS 8000 FEW040 TEMPO 1618/1704 FEW035CB SCT040 BKN100

Waarnemingen en weersverwachtingen van meer dan 4000 vliegvelden (METAR en TAF).

De beschikbare stations zijn de gele en rode punten op de kaart.

Ga met uw muis naar het station om de naam te zien.

Klik dan om waarnemingen en weersverwachtingen te zien.

kaart wijzigen: klik op de groene knoppen met een zwart kruis om in te zoomen, op de groene knop met een streepje om uit te zoomen of op de groene pijlen voor aangrenzende kaarten.


METAR-TAF: